Time;durP1;ratioP1;P1;durP2;ratioP2;P2;SDS_P1;SDS_P2;PMS_P1;PMS_P2;Temp;Humidity;BMP_temperature;BMP_pressure;BME280_temperature;BME280_humidity;BME280_pressure;Samples;Min_cycle;Max_cycle;Signal;HPM_P1;HPM_P2
2023/04/19 00:00:46;;;;;;;8.10;4.30;;;;;;;9.17;59.25;99303.80;107512;1254;69213;-40
2023/04/19 00:03:16;;;;;;;7.50;4.30;;;;;;;9.19;59.25;99308.39;107526;1253;73676;-39
2023/04/19 00:05:45;;;;;;;9.60;4.70;;;;;;;9.20;59.26;99305.18;107519;1254;61612;-37
2023/04/19 00:08:14;;;;;;;8.30;4.30;;;;;;;9.21;59.03;99301.02;107535;1253;61528;-38
2023/04/19 00:10:42;;;;;;;8.90;4.00;;;;;;;9.21;58.79;99299.38;107506;1253;74782;-37
2023/04/19 00:13:11;;;;;;;7.70;4.10;;;;;;;9.20;58.70;99299.23;107530;1258;69230;-37
2023/04/19 00:15:40;;;;;;;11.00;4.80;;;;;;;9.20;58.65;99297.60;107541;1254;72645;-37
2023/04/19 00:18:09;;;;;;;8.30;4.30;;;;;;;9.20;58.75;99298.84;107553;1254;60849;-38
2023/04/19 00:20:38;;;;;;;8.70;4.70;;;;;;;9.18;58.73;99292.38;107565;1254;61568;-38
2023/04/19 00:23:06;;;;;;;7.60;4.60;;;;;;;9.16;58.87;99292.27;107555;1254;75084;-38
2023/04/19 00:25:35;;;;;;;7.70;4.30;;;;;;;9.16;58.84;99294.04;107535;1258;68834;-38
2023/04/19 00:28:04;;;;;;;7.30;4.40;;;;;;;9.15;58.86;99287.21;107616;1254;73740;-38
2023/04/19 00:30:32;;;;;;;7.50;4.40;;;;;;;9.15;58.81;99285.21;107310;1254;61366;-38
2023/04/19 00:33:01;;;;;;;8.40;4.10;;;;;;;9.14;58.74;99279.92;107363;1254;61208;-38
2023/04/19 00:35:29;;;;;;;7.30;4.90;;;;;;;9.10;58.79;99277.77;107358;1254;74243;-38
2023/04/19 00:37:58;;;;;;;9.90;5.00;;;;;;;9.08;59.08;99275.70;106768;1258;1003716;-38
2023/04/19 00:40:28;;;;;;;;;;;;;;;9.06;59.30;99277.11;107493;1254;74773;-38
2023/04/19 00:42:56;;;;;;;8.80;4.50;;;;;;;8.97;59.30;99270.11;107552;1254;60826;-38
2023/04/19 00:45:25;;;;;;;7.70;4.80;;;;;;;8.91;59.64;99269.95;107331;1254;61539;-38
2023/04/19 00:47:53;;;;;;;9.00;5.20;;;;;;;8.90;59.66;99270.33;107513;1254;74097;-38
2023/04/19 00:50:22;;;;;;;9.00;4.60;;;;;;;8.89;59.60;99267.91;107145;1254;68853;-38
2023/04/19 00:52:51;;;;;;;11.00;5.20;;;;;;;8.88;59.54;99266.35;107589;1254;73899;-38
2023/04/19 00:55:21;;;;;;;9.40;4.80;;;;;;;8.88;59.69;99263.33;107576;1254;60414;-38
2023/04/19 00:57:50;;;;;;;8.00;5.10;;;;;;;8.87;59.74;99264.91;107585;1257;61311;-38
2023/04/19 01:00:19;;;;;;;8.20;4.80;;;;;;;8.86;59.72;99259.72;106663;1254;1002872;-38
2023/04/19 01:02:48;;;;;;;7.40;4.70;;;;;;;8.86;59.87;99259.27;107590;1254;69134;-38
2023/04/19 01:05:18;;;;;;;10.20;5.30;;;;;;;8.85;59.98;99255.85;107591;1254;72689;-38
2023/04/19 01:07:47;;;;;;;12.10;4.90;;;;;;;8.83;60.01;99254.49;107609;1254;60777;-38
2023/04/19 01:10:15;;;;;;;10.90;5.30;;;;;;;8.83;60.05;99249.67;107541;1259;61532;-38
2023/04/19 01:12:44;;;;;;;9.20;4.90;;;;;;;8.81;60.08;99247.17;107353;1259;73871;-38
2023/04/19 01:15:13;;;;;;;7.90;5.20;;;;;;;8.80;60.05;99244.14;107537;1254;68806;-38
2023/04/19 01:17:41;;;;;;;9.20;4.40;;;;;;;8.78;60.03;99242.54;107240;1254;73899;-38
2023/04/19 01:20:10;;;;;;;10.20;5.00;;;;;;;8.76;60.16;99241.65;107482;1257;60504;-38
2023/04/19 01:22:39;;;;;;;6.90;4.50;;;;;;;8.73;60.33;99241.89;107542;1254;60191;-38
2023/04/19 01:25:08;;;;;;;7.40;4.70;;;;;;;8.71;60.44;99240.31;107599;1255;75022;-38
2023/04/19 01:27:36;;;;;;;7.70;4.60;;;;;;;8.79;60.17;99236.70;107599;1254;67832;-38
2023/04/19 01:30:06;;;;;;;10.70;4.90;;;;;;;8.82;60.27;99240.85;107637;1253;73872;-38
2023/04/19 01:32:35;;;;;;;7.90;4.80;;;;;;;8.82;60.22;99240.53;107630;1254;61575;-38
2023/04/19 01:35:05;;;;;;;8.70;4.30;;;;;;;8.81;60.37;99232.87;107607;1255;60309;-38
2023/04/19 01:37:34;;;;;;;17.40;4.70;;;;;;;8.80;60.49;99229.23;107633;1253;72670;-38
2023/04/19 01:40:07;;;;;;;10.70;5.20;;;;;;;8.78;60.68;99228.71;107668;1254;66656;-38
2023/04/19 01:42:36;;;;;;;11.00;5.50;;;;;;;8.74;60.84;99224.14;107530;1259;73561;-38
2023/04/19 01:45:06;;;;;;;9.70;5.10;;;;;;;8.69;61.02;99222.48;107596;1254;61279;-38
2023/04/19 01:47:34;;;;;;;10.90;5.20;;;;;;;8.66;61.07;99214.16;107572;1254;61335;-38
2023/04/19 01:50:04;;;;;;;6.80;4.30;;;;;;;8.63;61.04;99206.89;107566;1254;74651;-38
2023/04/19 01:52:32;;;;;;;9.70;4.80;;;;;;;8.62;61.15;99210.90;107575;1255;69148;-38
2023/04/19 01:55:00;;;;;;;8.60;4.40;;;;;;;8.61;61.14;99206.61;107396;1254;73906;-38
2023/04/19 01:57:30;;;;;;;8.80;4.30;;;;;;;8.59;61.27;99212.65;107665;1254;60408;-37
2023/04/19 02:00:00;;;;;;;11.50;4.30;;;;;;;8.57;61.27;99208.84;107548;1254;61382;-38
2023/04/19 02:02:29;;;;;;;7.90;4.20;;;;;;;8.60;61.13;99208.43;107533;1255;75000;-38
2023/04/19 02:04:58;;;;;;;9.40;4.70;;;;;;;8.62;61.06;99210.59;107571;1259;68949;-38
2023/04/19 02:07:27;;;;;;;6.80;4.20;;;;;;;8.63;61.01;99215.39;107592;1254;72644;-38
2023/04/19 02:09:59;;;;;;;6.90;4.40;;;;;;;8.63;61.18;99210.91;107553;1258;61594;-38
2023/04/19 02:12:29;;;;;;;9.10;4.50;;;;;;;8.61;61.35;99214.89;107456;1259;61581;-38
2023/04/19 02:15:00;;;;;;;11.40;4.90;;;;;;;8.58;61.57;99214.34;107566;1254;75014;-38
2023/04/19 02:17:35;;;;;;;11.20;4.90;;;;;;;8.56;61.84;99213.20;107316;1254;69012;-38
2023/04/19 02:20:05;;;;;;;11.30;4.90;;;;;;;8.53;61.84;99210.66;107515;1254;73985;-38
2023/04/19 02:22:33;;;;;;;9.10;5.00;;;;;;;8.51;62.10;99214.70;107533;1256;61415;-38
2023/04/19 02:25:03;;;;;;;9.50;4.40;;;;;;;8.47;62.31;99212.38;107412;1254;60536;-38
2023/04/19 02:27:31;;;;;;;8.50;4.10;;;;;;;8.46;62.49;99215.52;107396;1254;75020;-38
2023/04/19 02:30:00;;;;;;;7.70;4.60;;;;;;;8.50;62.61;99215.38;107509;1258;68922;-38
2023/04/19 02:32:31;;;;;;;12.40;4.70;;;;;;;8.51;62.57;99214.40;107541;1258;72537;-38
2023/04/19 02:35:00;;;;;;;9.90;4.40;;;;;;;8.52;62.47;99215.42;107513;1254;61508;-38
2023/04/19 02:37:29;;;;;;;9.10;4.70;;;;;;;8.52;62.53;99218.13;107434;1255;61342;-38
2023/04/19 02:39:58;;;;;;;9.70;4.80;;;;;;;8.51;62.53;99215.95;107518;1258;74976;-38
2023/04/19 02:42:28;;;;;;;;;;;;;;;8.51;62.58;99217.24;107496;1258;68964;-38
2023/04/19 02:44:56;;;;;;;5.90;4.00;;;;;;;8.45;62.74;99219.71;107527;1254;73897;-38
2023/04/19 02:47:25;;;;;;;6.80;4.30;;;;;;;8.39;62.87;99216.95;107542;1258;61633;-38
2023/04/19 02:49:54;;;;;;;6.20;3.80;;;;;;;8.39;62.88;99220.58;107546;1253;61577;-38
2023/04/19 02:52:22;;;;;;;11.90;4.70;;;;;;;8.40;63.02;99214.11;107577;1259;74304;-38
2023/04/19 02:54:51;;;;;;;8.00;3.90;;;;;;;8.45;63.07;99216.48;107533;1254;67715;-38
2023/04/19 02:57:19;;;;;;;7.80;4.30;;;;;;;8.47;63.04;99217.08;107466;1254;73538;-38
2023/04/19 02:59:49;;;;;;;6.70;3.50;;;;;;;8.48;62.98;99218.80;107448;1260;61346;-38
2023/04/19 03:02:17;;;;;;;6.50;4.20;;;;;;;8.49;62.85;99215.80;107484;1255;61519;-38
2023/04/19 03:04:46;;;;;;;8.30;4.50;;;;;;;8.47;62.78;99215.84;107411;1260;75072;-38
2023/04/19 03:07:15;;;;;;;8.60;4.00;;;;;;;8.46;62.81;99216.14;107384;1253;69128;-38
2023/04/19 03:09:44;;;;;;;10.10;4.40;;;;;;;8.44;62.78;99218.84;107427;1260;73508;-38
2023/04/19 03:12:12;;;;;;;10.70;4.50;;;;;;;8.43;62.86;99218.73;107424;1260;61585;-38
2023/04/19 03:14:42;;;;;;;8.40;4.50;;;;;;;8.42;62.80;99220.89;107556;1254;61444;-38
2023/04/19 03:17:11;;;;;;;8.50;4.60;;;;;;;8.40;62.87;99218.15;107627;1256;74718;-38
2023/04/19 03:19:40;;;;;;;10.00;3.80;;;;;;;8.39;62.91;99216.34;107604;1254;69118;-38
2023/04/19 03:22:08;;;;;;;6.50;3.70;;;;;;;8.43;63.07;99217.05;107503;1257;74015;-38
2023/04/19 03:24:37;;;;;;;7.10;4.10;;;;;;;8.47;62.98;99214.84;107648;1256;60351;-38
2023/04/19 03:27:16;;;;;;;12.40;3.90;;;;;;;8.48;62.94;99214.19;107636;1256;60484;-38
2023/04/19 03:29:46;;;;;;;8.60;3.90;;;;;;;8.50;62.97;99211.35;106855;1254;1002966;-38
2023/04/19 03:32:16;;;;;;;7.40;4.10;;;;;;;8.49;62.85;99211.34;107585;1256;68882;-38
2023/04/19 03:34:44;;;;;;;6.40;4.00;;;;;;;8.48;62.99;99209.69;107657;1255;73875;-38
2023/04/19 03:37:15;;;;;;;9.00;4.40;;;;;;;8.46;62.94;99209.02;107550;1254;61473;-38
2023/04/19 03:39:44;;;;;;;11.20;4.20;;;;;;;8.44;63.01;99207.27;107579;1255;61480;-38
2023/04/19 03:42:15;;;;;;;9.40;4.00;;;;;;;8.42;63.20;99203.98;107662;1255;74728;-38
2023/04/19 03:45:01;;;;;;;9.20;4.10;;;;;;;8.40;63.33;99203.24;106852;1257;1002723;-38
2023/04/19 03:47:30;;;;;;;9.80;4.20;;;;;;;8.43;63.34;99202.92;107638;1257;72929;-38
2023/04/19 03:49:58;;;;;;;8.20;4.00;;;;;;;8.46;63.22;99201.77;107470;1258;61262;-38
2023/04/19 03:52:27;;;;;;;10.00;3.80;;;;;;;8.49;63.15;99204.09;107494;1258;61557;-38
2023/04/19 03:54:56;;;;;;;7.90;4.40;;;;;;;8.51;62.88;99202.20;107601;1254;75448;-38
2023/04/19 03:57:31;;;;;;;8.10;3.90;;;;;;;8.53;62.77;99202.18;107608;1254;68850;-38
2023/04/19 04:00:08;;;;;;;7.50;4.10;;;;;;;8.55;62.76;99202.08;107423;1257;73550;-38
2023/04/19 04:02:41;;;;;;;8.10;3.70;;;;;;;8.57;62.75;99203.44;107482;1260;60428;-38
2023/04/19 04:05:11;;;;;;;10.80;4.40;;;;;;;8.58;62.53;99203.00;107494;1253;61578;-38
2023/04/19 04:07:40;;;;;;;8.40;4.10;;;;;;;8.60;62.51;99202.50;107639;1255;73849;-39
2023/04/19 04:10:09;;;;;;;9.10;4.30;;;;;;;8.61;62.73;99205.39;107555;1254;69116;-38
2023/04/19 04:12:41;;;;;;;6.00;3.40;;;;;;;8.65;62.60;99209.11;107644;1255;72619;-38
2023/04/19 04:15:12;;;;;;;6.80;3.80;;;;;;;8.76;62.56;99212.69;107644;1256;62339;-38
2023/04/19 04:17:46;;;;;;;7.00;4.30;;;;;;;8.85;62.28;99207.87;107613;1253;61451;-38
2023/04/19 04:20:15;;;;;;;7.90;4.30;;;;;;;8.90;61.93;99209.54;107645;1255;74205;-38
2023/04/19 04:22:47;;;;;;;8.50;3.80;;;;;;;8.94;62.00;99216.27;107529;1255;67377;-38
2023/04/19 04:25:17;;;;;;;6.90;4.10;;;;;;;8.97;62.04;99213.78;107473;1257;72842;-38
2023/04/19 04:27:50;;;;;;;8.90;4.10;;;;;;;8.99;61.98;99214.85;107517;1258;61280;-39
2023/04/19 04:30:20;;;;;;;12.50;4.30;;;;;;;9.00;62.03;99214.72;106576;1254;1003458;-39
2023/04/19 04:32:50;;;;;;;7.10;4.00;;;;;;;9.05;61.96;99211.58;107371;1260;73416;-39
2023/04/19 04:35:19;;;;;;;8.90;4.20;;;;;;;9.08;61.75;99213.52;107348;1254;68811;-39
2023/04/19 04:37:55;;;;;;;8.80;4.30;;;;;;;9.09;61.77;99213.14;107534;1254;73661;-39
2023/04/19 04:40:24;;;;;;;7.80;4.80;;;;;;;9.09;61.87;99209.04;107292;1259;61305;-39
2023/04/19 04:42:53;;;;;;;6.90;4.10;;;;;;;9.10;61.82;99211.16;107424;1259;61227;-38
2023/04/19 04:45:22;;;;;;;9.00;3.90;;;;;;;9.12;61.77;99212.73;107358;1255;75054;-38
2023/04/19 04:47:51;;;;;;;6.90;4.00;;;;;;;9.16;61.76;99212.29;107410;1259;69125;-38
2023/04/19 04:50:19;;;;;;;8.00;4.00;;;;;;;9.27;61.69;99217.23;107503;1260;73901;-38
2023/04/19 04:52:49;;;;;;;8.90;4.70;;;;;;;9.33;61.39;99209.86;107521;1257;61375;-38
2023/04/19 04:55:21;;;;;;;9.50;4.30;;;;;;;9.38;61.16;99206.48;107457;1254;61259;-39
2023/04/19 04:57:50;;;;;;;7.30;4.70;;;;;;;9.44;61.20;99208.33;107436;1258;75044;-38
2023/04/19 05:00:24;;;;;;;9.40;5.20;;;;;;;9.50;60.93;99207.98;107466;1257;68235;-38
2023/04/19 05:03:02;;;;;;;7.80;4.80;;;;;;;9.52;60.85;99207.02;107435;1253;72621;-38
2023/04/19 05:05:33;;;;;;;6.50;4.40;;;;;;;9.53;61.16;99206.89;107521;1254;61608;-39
2023/04/19 05:08:02;;;;;;;8.90;5.10;;;;;;;9.59;61.29;99206.15;107496;1259;61484;-38
2023/04/19 05:10:31;;;;;;;10.70;5.00;;;;;;;9.64;60.97;99205.73;107500;1258;75125;-38
2023/04/19 05:13:00;;;;;;;6.50;4.50;;;;;;;9.71;60.52;99207.16;107596;1254;69597;-39
2023/04/19 05:15:30;;;;;;;10.60;4.80;;;;;;;9.78;60.58;99209.32;107494;1253;73920;-38
2023/04/19 05:17:58;;;;;;;10.80;4.70;;;;;;;9.84;60.63;99210.38;107553;1254;61407;-38
2023/04/19 05:20:28;;;;;;;10.40;5.00;;;;;;;9.91;60.12;99208.55;107663;1254;61406;-38
2023/04/19 05:23:10;;;;;;;9.70;4.90;;;;;;;9.99;59.81;99214.08;107650;1254;75074;-38
2023/04/19 05:25:39;;;;;;;12.00;5.30;;;;;;;10.00;59.81;99216.55;107645;1254;69023;-38
2023/04/19 05:28:08;;;;;;;11.60;5.20;;;;;;;10.00;59.66;99215.16;107605;1257;73665;-38
2023/04/19 05:30:46;;;;;;;10.40;4.90;;;;;;;9.97;59.65;99214.33;107560;1254;61487;-38
2023/04/19 05:33:15;;;;;;;11.40;5.50;;;;;;;9.93;59.80;99220.89;107588;1254;61361;-38
2023/04/19 05:35:44;;;;;;;11.70;5.30;;;;;;;9.92;59.96;99216.25;107411;1254;75117;-38
2023/04/19 05:38:12;;;;;;;9.40;5.50;;;;;;;9.87;59.94;99206.23;107467;1252;69127;-38
2023/04/19 05:40:41;;;;;;;7.40;4.70;;;;;;;9.93;60.26;99208.83;107422;1254;73884;-37
2023/04/19 05:43:10;;;;;;;9.80;5.10;;;;;;;9.96;60.49;99207.34;107413;1254;61540;-38
2023/04/19 05:45:38;;;;;;;13.20;5.70;;;;;;;10.04;60.42;99208.48;107379;1254;61536;-38
2023/04/19 05:48:07;;;;;;;10.20;4.90;;;;;;;10.13;60.43;99210.59;107412;1254;75069;-38
2023/04/19 05:50:56;;;;;;;9.70;4.80;;;;;;;10.26;60.00;99210.48;107391;1260;68583;-38
2023/04/19 05:53:43;;;;;;;13.00;5.10;;;;;;;10.38;59.63;99211.99;107390;1255;73926;-38
2023/04/19 05:56:12;;;;;;;;;;;;;;;10.46;59.36;99210.51;107609;1254;62316;-38
2023/04/19 05:58:40;;;;;;;8.80;5.30;;;;;;;10.50;59.13;99210.95;107551;1254;60316;-38
2023/04/19 06:01:09;;;;;;;9.70;5.60;;;;;;;10.57;58.78;99210.75;107475;1254;75095;-38
2023/04/19 06:03:37;;;;;;;12.30;5.90;;;;;;;10.73;58.62;99210.41;107472;1259;69242;-37
2023/04/19 06:06:06;;;;;;;9.00;5.70;;;;;;;10.84;58.53;99214.92;107615;1257;73872;-37
2023/04/19 06:08:37;;;;;;;9.90;5.30;;;;;;;10.94;59.02;99211.73;107698;1254;60519;-37
2023/04/19 06:11:05;;;;;;;10.90;6.00;;;;;;;11.04;59.22;99211.72;107647;1253;60360;-37
2023/04/19 06:13:52;;;;;;;11.30;5.30;;;;;;;11.18;59.50;99208.52;107527;1253;75731;-38
2023/04/19 06:16:20;;;;;;;12.10;6.20;;;;;;;11.32;59.51;99208.39;107372;1254;261115;-38
2023/04/19 06:20:32;;;;;;;12.60;6.50;;;;;;;11.57;58.43;99201.65;104056;1295;600598;-38
2023/04/19 06:23:00;;;;;;;10.70;6.30;;;;;;;11.68;58.22;99203.34;105815;1267;1002855;-37
2023/04/19 06:25:29;;;;;;;12.80;5.60;;;;;;;11.79;57.05;99204.34;106566;1267;61572;-37
2023/04/19 06:27:57;;;;;;;13.50;5.90;;;;;;;11.88;55.72;99204.30;106593;1270;73219;-38
2023/04/19 06:30:26;;;;;;;11.80;5.80;;;;;;;12.00;54.92;99205.82;106664;1267;69163;-37
2023/04/19 06:32:55;;;;;;;13.90;5.70;;;;;;;12.13;54.64;99205.65;106628;1270;73886;-38
2023/04/19 06:35:24;;;;;;;14.60;5.70;;;;;;;12.28;55.26;99207.96;106572;1264;60271;-37
2023/04/19 06:37:52;;;;;;;16.40;5.40;;;;;;;12.45;53.83;99205.63;106729;1268;61382;-38
2023/04/19 06:40:21;;;;;;;10.30;5.00;;;;;;;12.54;50.26;99203.23;106704;1269;73476;-38
2023/04/19 06:42:50;;;;;;;13.30;5.50;;;;;;;12.56;50.83;99210.92;106798;1269;68667;-38
2023/04/19 06:45:18;;;;;;;11.40;5.60;;;;;;;12.56;51.90;99206.51;106818;1269;72705;-38
2023/04/19 06:47:46;;;;;;;12.10;5.20;;;;;;;12.60;51.97;99209.73;106815;1265;60043;-38
2023/04/19 06:50:15;;;;;;;9.30;5.00;;;;;;;12.66;52.47;99211.48;106853;1268;60485;-38
2023/04/19 06:52:44;;;;;;;10.10;5.20;;;;;;;12.74;52.03;99211.69;106867;1269;74224;-38
2023/04/19 06:55:12;;;;;;;9.40;5.30;;;;;;;12.83;52.02;99212.48;106845;1264;69205;-38
2023/04/19 06:57:42;;;;;;;14.90;6.20;;;;;;;12.91;51.78;99213.45;106877;1269;72098;-38
2023/04/19 07:00:12;;;;;;;12.30;5.90;;;;;;;12.97;51.98;99212.73;106823;1264;60348;-38
2023/04/19 07:02:40;;;;;;;11.40;5.80;;;;;;;13.05;52.21;99213.79;106787;1266;59958;-38
2023/04/19 07:05:11;;;;;;;13.70;5.90;;;;;;;13.19;51.48;99214.52;106736;1268;72708;-38
2023/04/19 07:07:40;;;;;;;14.60;6.10;;;;;;;13.33;51.42;99216.24;106730;1268;69142;-38
2023/04/19 07:10:09;;;;;;;17.80;5.80;;;;;;;13.47;50.34;99218.17;106901;1265;73819;-38
2023/04/19 07:12:38;;;;;;;15.00;6.00;;;;;;;13.59;50.39;99216.29;106897;1261;61268;-38
2023/04/19 07:15:08;;;;;;;15.10;5.60;;;;;;;13.71;50.80;99215.48;106974;1262;61534;-38
2023/04/19 07:17:36;;;;;;;20.20;6.80;;;;;;;13.84;49.94;99220.35;106931;1267;72424;-38
2023/04/19 07:20:06;;;;;;;13.00;6.10;;;;;;;13.96;47.84;99212.61;106961;1265;69168;-38
2023/04/19 07:22:35;;;;;;;21.70;6.60;;;;;;;14.02;47.70;99214.09;107061;1265;73881;-38
2023/04/19 07:25:04;;;;;;;12.30;6.30;;;;;;;14.06;48.09;99217.23;107052;1266;61737;-38
2023/04/19 07:27:33;;;;;;;13.10;4.90;;;;;;;14.16;47.38;99213.83;107066;1260;59867;-38
2023/04/19 07:30:01;;;;;;;15.40;5.70;;;;;;;14.26;47.52;99220.16;106987;1261;74270;-38
2023/04/19 07:32:31;;;;;;;14.90;5.60;;;;;;;14.36;47.47;99217.54;107044;1264;68750;-38
2023/04/19 07:35:00;;;;;;;14.10;5.10;;;;;;;14.45;47.17;99214.98;106990;1266;73832;-38
2023/04/19 07:37:29;;;;;;;13.40;4.50;;;;;;;14.52;47.36;99212.11;106977;1266;61601;-38
2023/04/19 07:39:57;;;;;;;18.10;4.90;;;;;;;14.62;47.46;99209.45;107038;1263;61687;-38
2023/04/19 07:42:26;;;;;;;10.10;5.00;;;;;;;14.75;46.98;99212.49;107055;1265;74272;-38
2023/04/19 07:44:55;;;;;;;12.80;4.90;;;;;;;14.87;47.03;99210.77;106900;1264;68043;-38
2023/04/19 07:47:23;;;;;;;12.60;4.40;;;;;;;15.02;46.91;99211.00;107011;1265;73766;-38
2023/04/19 07:49:52;;;;;;;12.90;4.80;;;;;;;15.16;45.00;99207.45;106991;1264;61251;-38
2023/04/19 07:52:20;;;;;;;32.40;4.60;;;;;;;15.29;45.38;99204.23;107043;1264;60559;-38
2023/04/19 07:54:49;;;;;;;14.90;5.00;;;;;;;15.41;44.75;99202.63;106961;1264;74252;-38
2023/04/19 07:57:18;;;;;;;20.20;4.70;;;;;;;15.53;44.65;99203.00;106990;1263;68783;-38
2023/04/19 07:59:46;;;;;;;12.60;4.30;;;;;;;15.65;44.67;99203.52;106964;1266;73897;-38
2023/04/19 08:02:16;;;;;;;15.50;4.20;;;;;;;15.79;43.19;99196.04;107038;1261;61602;-38
2023/04/19 08:04:47;;;;;;;12.70;4.00;;;;;;;15.90;43.39;99196.14;107048;1264;61022;-38
2023/04/19 08:07:15;;;;;;;15.70;4.00;;;;;;;16.02;43.43;99196.22;106966;1262;73074;-38
2023/04/19 08:09:44;;;;;;;12.10;3.90;;;;;;;16.12;42.56;99196.40;107029;1266;68617;-38
2023/04/19 08:12:13;;;;;;;14.00;4.20;;;;;;;16.19;41.84;99193.70;106979;1261;72353;-38
2023/04/19 08:15:00;;;;;;;15.00;4.20;;;;;;;16.23;41.73;99194.84;106969;1267;61589;-38
2023/04/19 08:17:49;;;;;;;19.80;4.00;;;;;;;16.21;42.27;99197.99;106999;1262;61425;-38
2023/04/19 08:20:18;;;;;;;10.10;3.80;;;;;;;16.24;42.04;99193.36;106911;1265;74204;-37
2023/04/19 08:22:46;;;;;;;17.00;4.50;;;;;;;16.30;42.59;99191.35;106885;1264;69156;-37
2023/04/19 08:25:15;;;;;;;21.30;7.60;;;;;;;16.38;42.37;99185.20;106930;1263;73896;-37
2023/04/19 08:27:44;;;;;;;16.30;4.70;;;;;;;16.49;42.18;99184.50;106988;1264;61676;-38
2023/04/19 08:30:13;;;;;;;14.80;4.60;;;;;;;16.62;42.88;99182.30;106902;1261;61453;-38
2023/04/19 08:32:41;;;;;;;12.00;4.00;;;;;;;16.72;42.21;99180.58;106965;1264;74307;-38
2023/04/19 08:35:10;;;;;;;15.50;4.30;;;;;;;16.77;41.54;99179.73;106879;1263;67749;-38
2023/04/19 08:37:38;;;;;;;15.30;4.20;;;;;;;16.77;41.71;99177.95;106997;1264;73860;-38
2023/04/19 08:40:08;;;;;;;15.80;4.30;;;;;;;16.76;41.78;99175.46;106972;1265;60982;-38
2023/04/19 08:42:37;;;;;;;14.30;4.30;;;;;;;16.74;41.69;99171.65;107019;1261;59900;-38
2023/04/19 08:45:07;;;;;;;14.20;4.70;;;;;;;16.73;41.88;99167.43;106975;1260;72959;-37
2023/04/19 08:47:39;;;;;;;14.20;4.00;;;;;;;16.78;42.70;99168.64;107016;1264;69146;-37
2023/04/19 08:50:11;;;;;;;13.00;4.30;;;;;;;16.83;41.18;99164.05;107086;1266;72743;-38
2023/04/19 08:53:02;;;;;;;12.30;4.90;;;;;;;16.76;41.27;99163.81;107135;1257;60640;-38
2023/04/19 08:55:33;;;;;;;14.60;4.30;;;;;;;16.73;41.98;99166.11;107191;1257;61185;-37
2023/04/19 08:58:02;;;;;;;19.50;4.80;;;;;;;16.76;42.22;99167.80;107150;1258;74247;-37
2023/04/19 09:00:37;;;;;;;14.90;4.40;;;;;;;16.78;41.74;99170.19;107200;1257;67757;-38
2023/04/19 09:03:06;;;;;;;11.80;4.30;;;;;;;16.82;42.30;99171.82;107105;1257;72917;-38
2023/04/19 09:05:36;;;;;;;;;;;;;;;16.86;42.36;99171.45;107257;1257;60372;-38
2023/04/19 09:08:25;;;;;;;19.00;5.00;;;;;;;16.88;42.37;99165.89;107265;1258;61318;-38
2023/04/19 09:10:55;;;;;;;16.20;4.00;;;;;;;16.99;41.85;99160.30;107206;1257;72108;-38
2023/04/19 09:13:25;;;;;;;13.80;3.70;;;;;;;17.12;42.26;99169.64;107246;1257;68748;-38
2023/04/19 09:15:56;;;;;;;;;;;;;;;17.31;42.10;99171.37;107248;1261;73846;-38
2023/04/19 09:18:24;;;;;;;;;;;;;;;17.50;41.01;99170.37;107275;1257;60839;-38
2023/04/19 09:20:56;;;;;;;16.30;4.20;;;;;;;17.58;41.95;99171.14;107239;1257;61437;-38
2023/04/19 09:23:26;;;;;;;15.10;4.10;;;;;;;17.77;41.53;99179.63;107267;1257;74074;-38
2023/04/19 09:26:01;;;;;;;13.90;3.80;;;;;;;17.95;40.63;99178.98;107251;1262;67678;-38
2023/04/19 09:28:32;;;;;;;13.10;4.00;;;;;;;17.95;40.47;99185.58;107205;1257;73924;-38
2023/04/19 09:31:12;;;;;;;15.20;4.00;;;;;;;17.91;40.35;99181.32;107231;1258;59820;-38
2023/04/19 09:34:14;;;;;;;;;;;;;;;17.93;40.55;99178.08;107259;1262;61468;-38
2023/04/19 09:36:42;;;;;;;17.30;4.10;;;;;;;18.00;41.79;99170.60;107249;1257;74207;-38
2023/04/19 09:39:11;;;;;;;11.70;3.70;;;;;;;18.19;40.28;99168.14;107083;1257;69105;-38
2023/04/19 09:41:52;;;;;;;12.70;3.80;;;;;;;18.30;39.89;99162.00;107261;1257;73862;-38
2023/04/19 09:44:21;;;;;;;12.70;3.90;;;;;;;18.36;40.02;99167.25;107205;1257;61319;-38
2023/04/19 09:46:54;;;;;;;11.80;3.70;;;;;;;18.49;40.23;99164.23;107301;1257;60580;-39
2023/04/19 09:49:23;;;;;;;13.30;4.60;;;;;;;18.69;39.97;99158.73;107303;1262;72503;-38
2023/04/19 09:52:13;;;;;;;15.10;4.40;;;;;;;18.86;39.40;99158.73;107250;1257;68633;-39
2023/04/19 09:54:41;;;;;;;16.90;4.00;;;;;;;18.85;38.98;99157.36;107252;1257;72691;-38
2023/04/19 09:57:10;;;;;;;18.80;4.20;;;;;;;18.81;39.23;99160.17;107080;1257;61279;-39
2023/04/19 09:59:38;;;;;;;13.30;4.20;;;;;;;18.84;39.21;99160.12;107229;1258;61638;-38
2023/04/19 10:02:07;;;;;;;25.40;4.50;;;;;;;18.85;39.10;99154.99;107253;1257;73977;-38
2023/04/19 10:04:37;;;;;;;19.60;4.30;;;;;;;18.81;39.52;99153.11;107076;1257;69142;-38
2023/04/19 10:07:11;;;;;;;18.90;4.40;;;;;;;18.63;39.21;99156.08;107060;1257;73855;-39
2023/04/19 10:09:42;;;;;;;19.70;4.10;;;;;;;18.49;40.22;99159.18;107053;1257;59698;-38
2023/04/19 10:12:25;;;;;;;17.60;4.10;;;;;;;18.49;40.13;99156.91;107042;1263;61351;-39
2023/04/19 10:14:56;;;;;;;19.90;4.10;;;;;;;18.52;40.31;99154.83;107238;1257;74169;-38
2023/04/19 10:17:25;;;;;;;19.30;4.50;;;;;;;18.62;40.34;99155.09;107269;1257;68152;-39
2023/04/19 10:20:00;;;;;;;22.10;4.20;;;;;;;18.77;40.28;99145.04;107227;1257;73848;-38
2023/04/19 10:22:29;;;;;;;19.80;4.10;;;;;;;18.88;39.62;99145.13;107210;1257;61966;-38
2023/04/19 10:25:11;;;;;;;19.60;4.80;;;;;;;18.90;39.01;99147.13;107085;1258;61485;-38
2023/04/19 10:27:44;;;;;;;21.90;4.20;;;;;;;18.84;39.61;99147.70;107238;1262;72913;-38
2023/04/19 10:30:22;;;;;;;18.30;4.20;;;;;;;18.84;39.31;99148.75;107310;1257;69104;-38
2023/04/19 10:33:02;;;;;;;23.20;4.30;;;;;;;18.85;39.04;99147.86;107094;1257;74304;-38
2023/04/19 10:35:38;;;;;;;21.40;4.10;;;;;;;18.86;38.79;99145.48;107110;1263;61714;-38
2023/04/19 10:38:15;;;;;;;25.40;4.30;;;;;;;18.88;39.24;99143.81;106994;1259;61594;-38
2023/04/19 10:40:50;;;;;;;20.10;3.90;;;;;;;18.92;38.58;99148.65;106940;1260;75128;-38
2023/04/19 10:43:19;;;;;;;19.30;4.50;;;;;;;18.93;38.59;99144.41;107036;1260;69140;-37
2023/04/19 10:45:47;;;;;;;26.30;4.50;;;;;;;18.93;38.12;99145.27;107044;1260;73912;-38
2023/04/19 10:48:29;;;;;;;26.80;4.40;;;;;;;18.99;38.38;99144.23;106943;1260;61585;-37
2023/04/19 10:50:58;;;;;;;26.40;4.60;;;;;;;19.10;38.06;99144.64;107041;1261;61668;-38
2023/04/19 10:53:42;;;;;;;25.30;4.40;;;;;;;19.18;37.82;99144.25;107064;1263;75056;-38
2023/04/19 10:56:11;;;;;;;24.10;4.40;;;;;;;19.18;38.26;99146.77;107072;1260;69345;-37
2023/04/19 10:59:04;;;;;;;24.10;4.50;;;;;;;19.19;38.09;99147.54;107057;1260;73367;-37
2023/04/19 11:01:38;;;;;;;21.80;4.40;;;;;;;19.16;37.31;99149.64;107042;1260;60420;-37
2023/04/19 11:04:08;;;;;;;22.60;4.70;;;;;;;19.04;38.16;99155.36;107021;1261;61550;-38
2023/04/19 11:06:38;;;;;;;17.00;4.30;;;;;;;19.01;38.51;99161.70;107030;1263;75008;-38
2023/04/19 11:09:09;;;;;;;21.00;4.50;;;;;;;19.03;38.20;99158.04;107012;1260;68968;-38
2023/04/19 11:11:37;;;;;;;28.00;4.30;;;;;;;19.06;38.21;99155.94;107043;1260;73912;-38
2023/04/19 11:14:06;;;;;;;34.80;4.90;;;;;;;19.07;38.59;99156.79;106998;1260;61622;-38
2023/04/19 11:16:35;;;;;;;26.30;4.50;;;;;;;19.00;38.36;99152.06;106955;1261;61320;-38
2023/04/19 11:19:16;;;;;;;27.80;5.50;;;;;;;19.00;38.09;99155.35;107163;1260;75050;-38
2023/04/19 11:21:46;;;;;;;31.90;5.10;;;;;;;18.96;38.63;99159.83;107157;1260;68521;-38
2023/04/19 11:24:17;;;;;;;39.40;6.30;;;;;;;18.91;38.34;99158.19;107151;1260;73357;-38
2023/04/19 11:26:47;;;;;;;30.30;4.50;;;;;;;18.81;38.84;99162.38;107163;1260;61400;-38
2023/04/19 11:29:15;;;;;;;28.80;5.40;;;;;;;18.75;39.42;99169.45;107148;1261;60555;-38
2023/04/19 11:31:45;;;;;;;23.90;4.50;;;;;;;18.74;39.30;99167.98;107188;1260;73010;-38
2023/04/19 11:34:13;;;;;;;22.00;3.90;;;;;;;18.71;39.42;99169.29;107122;1260;68049;-38
2023/04/19 11:36:49;;;;;;;25.30;4.80;;;;;;;18.65;39.52;99166.02;107138;1260;73661;-38
2023/04/19 11:39:18;;;;;;;27.50;4.90;;;;;;;18.53;39.51;99178.04;107180;1259;61275;-37
2023/04/19 11:41:46;;;;;;;32.90;4.40;;;;;;;18.37;40.11;99174.74;107158;1261;61366;-37
2023/04/19 11:44:16;;;;;;;20.30;4.30;;;;;;;18.21;40.91;99176.73;107126;1262;74073;-37